Aviation Digital Data Service (ADDS)

Output produced by METARs form (1235 UTC 26 March 2019)
found at http://www.aviationweather.gov/metar/data/
 
METAR text: MMAA 261042Z 00000KT 6SM SKC 24/21 A2985 RMK HZY
Conditions at: MMAA (ACAPULCO/G. ALVA, MX) observed 1042 UTC 26 March 2019
Temperature: 24.0°C (75°F)
Dewpoint: 21.0°C (70°F) [RH = 83%]
Pressure (altimeter): 29.85 inches Hg (1010.9 mb)
Winds: calm
Visibility: 6 miles (10 km)
Ceiling: at least 12,000 feet AGL
Clouds: clear skies
Weather: no significant weather observed at this time

METAR text: MMAA 260942Z 00000KT 6SM SKC 23/22 A2986 RMK HZY
Conditions at: MMAA (ACAPULCO/G. ALVA, MX) observed 0942 UTC 26 March 2019
Temperature: 23.0°C (73°F)
Dewpoint: 22.0°C (72°F) [RH = 94%]
Pressure (altimeter): 29.86 inches Hg (1011.3 mb)
Winds: calm
Visibility: 6 miles (10 km)
Ceiling: at least 12,000 feet AGL
Clouds: clear skies
Weather: no significant weather observed at this time

METAR text: MMAA 260848Z 00000KT 6SM SKC 24/22 A2987 RMK SLP114 57016 954 HZY
Conditions at: MMAA (ACAPULCO/G. ALVA, MX) observed 0848 UTC 26 March 2019
Temperature: 24.0°C (75°F)
Dewpoint: 22.0°C (72°F) [RH = 89%]
Pressure (altimeter): 29.87 inches Hg (1011.6 mb)
[Sea-level pressure: 1011.4 mb]
Winds: calm
Visibility: 6 miles (10 km)
Ceiling: at least 12,000 feet AGL
Clouds: clear skies
Weather: no significant weather observed at this time

METAR text: MMAA 260749Z 33004KT 6SM SKC 24/22 A2989 RMK HZY
Conditions at: MMAA (ACAPULCO/G. ALVA, MX) observed 0749 UTC 26 March 2019
Temperature: 24.0°C (75°F)
Dewpoint: 22.0°C (72°F) [RH = 89%]
Pressure (altimeter): 29.89 inches Hg (1012.3 mb)
Winds: from the NNW (330 degrees) at 5 MPH (4 knots; 2.1 m/s)
Visibility: 6 miles (10 km)
Ceiling: at least 12,000 feet AGL
Clouds: clear skies
Weather: no significant weather observed at this time

METAR text: MMAA 260644Z 00000KT 6SM SKC 25/23 A2991 RMK HZY
Conditions at: MMAA (ACAPULCO/G. ALVA, MX) observed 0644 UTC 26 March 2019
Temperature: 25.0°C (77°F)
Dewpoint: 23.0°C (73°F) [RH = 89%]
Pressure (altimeter): 29.91 inches Hg (1013.0 mb)
Winds: calm
Visibility: 6 miles (10 km)
Ceiling: at least 12,000 feet AGL
Clouds: clear skies
Weather: no significant weather observed at this time

METAR text: MMAA 260554Z 00000KT 6SM SKC 25/23 A2992 RMK SLP130 52010 953 HZY
Conditions at: MMAA (ACAPULCO/G. ALVA, MX) observed 0554 UTC 26 March 2019
Temperature: 25.0°C (77°F)
Dewpoint: 23.0°C (73°F) [RH = 89%]
Pressure (altimeter): 29.92 inches Hg (1013.3 mb)
[Sea-level pressure: 1013.0 mb]
Winds: calm
Visibility: 6 miles (10 km)
Ceiling: at least 12,000 feet AGL
Clouds: clear skies
Weather: no significant weather observed at this time

METAR text: MMAA 260445Z 00000KT 6SM SKC 25/23 A2993 RMK HZY
Conditions at: MMAA (ACAPULCO/G. ALVA, MX) observed 0445 UTC 26 March 2019
Temperature: 25.0°C (77°F)
Dewpoint: 23.0°C (73°F) [RH = 89%]
Pressure (altimeter): 29.93 inches Hg (1013.6 mb)
Winds: calm
Visibility: 6 miles (10 km)
Ceiling: at least 12,000 feet AGL
Clouds: clear skies
Weather: no significant weather observed at this time

METAR text: MMAA 260345Z 00000KT 6SM SKC 25/23 A2991 RMK HZY
Conditions at: MMAA (ACAPULCO/G. ALVA, MX) observed 0345 UTC 26 March 2019
Temperature: 25.0°C (77°F)
Dewpoint: 23.0°C (73°F) [RH = 89%]
Pressure (altimeter): 29.91 inches Hg (1013.0 mb)
Winds: calm
Visibility: 6 miles (10 km)
Ceiling: at least 12,000 feet AGL
Clouds: clear skies
Weather: no significant weather observed at this time

METAR text: MMAA 260244Z 00000KT 6SM SKC 25/24 A2989 RMK SLP120 52035 961 HZY
Conditions at: MMAA (ACAPULCO/G. ALVA, MX) observed 0244 UTC 26 March 2019
Temperature: 25.0°C (77°F)
Dewpoint: 24.0°C (75°F) [RH = 94%]
Pressure (altimeter): 29.89 inches Hg (1012.3 mb)
[Sea-level pressure: 1012.0 mb]
Winds: calm
Visibility: 6 miles (10 km)
Ceiling: at least 12,000 feet AGL
Clouds: clear skies
Weather: no significant weather observed at this time

METAR text: MMAA 260142Z 00000KT 6SM SKC 26/23 A2986 RMK HZY
Conditions at: MMAA (ACAPULCO/G. ALVA, MX) observed 0142 UTC 26 March 2019
Temperature: 26.0°C (79°F)
Dewpoint: 23.0°C (73°F) [RH = 84%]
Pressure (altimeter): 29.86 inches Hg (1011.3 mb)
Winds: calm
Visibility: 6 miles (10 km)
Ceiling: at least 12,000 feet AGL
Clouds: clear skies
Weather: no significant weather observed at this time

METAR text: MMAA 260044Z 24005KT 7SM SKC 27/23 A2982 RMK HZY
Conditions at: MMAA (ACAPULCO/G. ALVA, MX) observed 0044 UTC 26 March 2019
Temperature: 27.0°C (81°F)
Dewpoint: 23.0°C (73°F) [RH = 79%]
Pressure (altimeter): 29.82 inches Hg (1009.9 mb)
Winds: from the WSW (240 degrees) at 6 MPH (5 knots; 2.6 m/s)
Visibility: 7 miles (11 km)
Ceiling: at least 12,000 feet AGL
Clouds: clear skies
Weather: no significant weather observed at this time

METAR text: MMAA 252348Z 25008KT 7SM SKC 28/23 A2980 RMK SLP085 57001 966 HZY
Conditions at: MMAA (ACAPULCO/G. ALVA, MX) observed 2348 UTC 25 March 2019
Temperature: 28.0°C (82°F)
Dewpoint: 23.0°C (73°F) [RH = 74%]
Pressure (altimeter): 29.80 inches Hg (1009.2 mb)
[Sea-level pressure: 1008.5 mb]
Winds: from the WSW (250 degrees) at 9 MPH (8 knots; 4.1 m/s)
Visibility: 7 miles (11 km)
Ceiling: at least 12,000 feet AGL
Clouds: clear skies
Weather: no significant weather observed at this time

METAR text: MMAA 252249Z 26007KT 7SM SKC 28/23 A2979 RMK HZY
Conditions at: MMAA (ACAPULCO/G. ALVA, MX) observed 2249 UTC 25 March 2019
Temperature: 28.0°C (82°F)
Dewpoint: 23.0°C (73°F) [RH = 74%]
Pressure (altimeter): 29.79 inches Hg (1008.9 mb)
Winds: from the W (260 degrees) at 8 MPH (7 knots; 3.6 m/s)
Visibility: 7 miles (11 km)
Ceiling: at least 12,000 feet AGL
Clouds: clear skies
Weather: no significant weather observed at this time

METAR text: MMAA 252147Z 26004KT 7SM SKC 29/23 A2978 RMK HZY
Conditions at: MMAA (ACAPULCO/G. ALVA, MX) observed 2147 UTC 25 March 2019
Temperature: 29.0°C (84°F)
Dewpoint: 23.0°C (73°F) [RH = 70%]
Pressure (altimeter): 29.78 inches Hg (1008.5 mb)
Winds: from the W (260 degrees) at 5 MPH (4 knots; 2.1 m/s)
Visibility: 7 miles (11 km)
Ceiling: at least 12,000 feet AGL
Clouds: clear skies
Weather: no significant weather observed at this time

METAR text: MMAA 252054Z 23005KT 6SM SKC 30/23 A2980 RMK SLP086 57040 970 HZY
Conditions at: MMAA (ACAPULCO/G. ALVA, MX) observed 2054 UTC 25 March 2019
Temperature: 30.0°C (86°F)
Dewpoint: 23.0°C (73°F) [RH = 66%]
Pressure (altimeter): 29.80 inches Hg (1009.2 mb)
[Sea-level pressure: 1008.6 mb]
Winds: from the SW (230 degrees) at 6 MPH (5 knots; 2.6 m/s)
Visibility: 6 miles (10 km)
Ceiling: at least 12,000 feet AGL
Clouds: clear skies
Weather: no significant weather observed at this time

METAR text: MMAA 251944Z 27008KT 7SM SKC 29/23 A2984 RMK HZY
Conditions at: MMAA (ACAPULCO/G. ALVA, MX) observed 1944 UTC 25 March 2019
Temperature: 29.0°C (84°F)
Dewpoint: 23.0°C (73°F) [RH = 70%]
Pressure (altimeter): 29.84 inches Hg (1010.6 mb)
Winds: from the W (270 degrees) at 9 MPH (8 knots; 4.1 m/s)
Visibility: 7 miles (11 km)
Ceiling: at least 12,000 feet AGL
Clouds: clear skies
Weather: no significant weather observed at this time

METAR text: MMAA 251847Z 23008KT 7SM SKC 30/23 A2988 RMK HZY
Conditions at: MMAA (ACAPULCO/G. ALVA, MX) observed 1847 UTC 25 March 2019
Temperature: 30.0°C (86°F)
Dewpoint: 23.0°C (73°F) [RH = 66%]
Pressure (altimeter): 29.88 inches Hg (1011.9 mb)
Winds: from the SW (230 degrees) at 9 MPH (8 knots; 4.1 m/s)
Visibility: 7 miles (11 km)
Ceiling: at least 12,000 feet AGL
Clouds: clear skies
Weather: no significant weather observed at this time

METAR text: MMAA 251743Z 25005KT 7SM SKC 30/23 A2991 RMK SLP126 57007 961 HZYS
Conditions at: MMAA (ACAPULCO/G. ALVA, MX) observed 1743 UTC 25 March 2019
Temperature: 30.0°C (86°F)
Dewpoint: 23.0°C (73°F) [RH = 66%]
Pressure (altimeter): 29.91 inches Hg (1013.0 mb)
[Sea-level pressure: 1012.6 mb]
Winds: from the WSW (250 degrees) at 6 MPH (5 knots; 2.6 m/s)
Visibility: 7 miles (11 km)
Ceiling: at least 12,000 feet AGL
Clouds: clear skies
Weather: no significant weather observed at this time

METAR text: MMAA 251646Z 19006KT 7SM SKC 29/21 A2993 RMK HZY
Conditions at: MMAA (ACAPULCO/G. ALVA, MX) observed 1646 UTC 25 March 2019
Temperature: 29.0°C (84°F)
Dewpoint: 21.0°C (70°F) [RH = 62%]
Pressure (altimeter): 29.93 inches Hg (1013.6 mb)
Winds: from the S (190 degrees) at 7 MPH (6 knots; 3.1 m/s)
Visibility: 7 miles (11 km)
Ceiling: at least 12,000 feet AGL
Clouds: clear skies
Weather: no significant weather observed at this time

METAR text: MMAA 251548Z 00000KT 7SM SKC 29/21 A2994 RMK HZY
Conditions at: MMAA (ACAPULCO/G. ALVA, MX) observed 1548 UTC 25 March 2019
Temperature: 29.0°C (84°F)
Dewpoint: 21.0°C (70°F) [RH = 62%]
Pressure (altimeter): 29.94 inches Hg (1014.0 mb)
Winds: calm
Visibility: 7 miles (11 km)
Ceiling: at least 12,000 feet AGL
Clouds: clear skies
Weather: no significant weather observed at this time

METAR text: MMAA 251448Z 00000KT 7SM SKC 28/21 A2993 RMK SLP135 52033 961 HZY
Conditions at: MMAA (ACAPULCO/G. ALVA, MX) observed 1448 UTC 25 March 2019
Temperature: 28.0°C (82°F)
Dewpoint: 21.0°C (70°F) [RH = 66%]
Pressure (altimeter): 29.93 inches Hg (1013.6 mb)
[Sea-level pressure: 1013.5 mb]
Winds: calm
Visibility: 7 miles (11 km)
Ceiling: at least 12,000 feet AGL
Clouds: clear skies
Weather: no significant weather observed at this time

METAR text: MMAA 251346Z 00000KT 7SM SKC 25/21 A2991 RMK HZY
Conditions at: MMAA (ACAPULCO/G. ALVA, MX) observed 1346 UTC 25 March 2019
Temperature: 25.0°C (77°F)
Dewpoint: 21.0°C (70°F) [RH = 79%]
Pressure (altimeter): 29.91 inches Hg (1013.0 mb)
Winds: calm
Visibility: 7 miles (11 km)
Ceiling: at least 12,000 feet AGL
Clouds: clear skies
Weather: no significant weather observed at this time

METAR text: MMAA 251242Z 28003KT 7SM SKC 23/20 A2988 RMK HZY ISOL CI
Conditions at: MMAA (ACAPULCO/G. ALVA, MX) observed 1242 UTC 25 March 2019
Temperature: 23.0°C (73°F)
Dewpoint: 20.0°C (68°F) [RH = 83%]
Pressure (altimeter): 29.88 inches Hg (1011.9 mb)
Winds: from the W (280 degrees) at 3 MPH (3 knots; 1.5 m/s)
Visibility: 7 miles (11 km)
Ceiling: at least 12,000 feet AGL
Clouds: clear skies
Weather: no significant weather observed at this time

METAR text: MMAA 251147Z 30006KT 6SM SKC 23/19 A2986 RMK SLP102 57016 985 HZY
Conditions at: MMAA (ACAPULCO/G. ALVA, MX) observed 1147 UTC 25 March 2019
Temperature: 23.0°C (73°F)
Dewpoint: 19.0°C (66°F) [RH = 78%]
Pressure (altimeter): 29.86 inches Hg (1011.3 mb)
[Sea-level pressure: 1010.2 mb]
Winds: from the WNW (300 degrees) at 7 MPH (6 knots; 3.1 m/s)
Visibility: 6 miles (10 km)
Ceiling: at least 12,000 feet AGL
Clouds: clear skies
Weather: no significant weather observed at this time

METAR text: MMAA 251040Z 31003KT 6SM SKC 24/21 A2986 RMK HZY
Conditions at: MMAA (ACAPULCO/G. ALVA, MX) observed 1040 UTC 25 March 2019
Temperature: 24.0°C (75°F)
Dewpoint: 21.0°C (70°F) [RH = 83%]
Pressure (altimeter): 29.86 inches Hg (1011.3 mb)
Winds: from the NW (310 degrees) at 3 MPH (3 knots; 1.5 m/s)
Visibility: 6 miles (10 km)
Ceiling: at least 12,000 feet AGL
Clouds: clear skies
Weather: no significant weather observed at this time

METAR text: MMAA 250940Z 33006KT 6SM SKC 24/21 A2987 RMK HZY
Conditions at: MMAA (ACAPULCO/G. ALVA, MX) observed 0940 UTC 25 March 2019
Temperature: 24.0°C (75°F)
Dewpoint: 21.0°C (70°F) [RH = 83%]
Pressure (altimeter): 29.87 inches Hg (1011.6 mb)
Winds: from the NNW (330 degrees) at 7 MPH (6 knots; 3.1 m/s)
Visibility: 6 miles (10 km)
Ceiling: at least 12,000 feet AGL
Clouds: clear skies
Weather: no significant weather observed at this time

METAR text: MMAA 250841Z 28003KT 6SM SKC 23/22 A2990 RMK SLP118 57015 969 HZY
Conditions at: MMAA (ACAPULCO/G. ALVA, MX) observed 0841 UTC 25 March 2019
Temperature: 23.0°C (73°F)
Dewpoint: 22.0°C (72°F) [RH = 94%]
Pressure (altimeter): 29.90 inches Hg (1012.6 mb)
[Sea-level pressure: 1011.8 mb]
Winds: from the W (280 degrees) at 3 MPH (3 knots; 1.5 m/s)
Visibility: 6 miles (10 km)
Ceiling: at least 12,000 feet AGL
Clouds: clear skies
Weather: no significant weather observed at this time

METAR text: MMAA 250740Z 35003KT 6SM SKC 25/23 A2992 RMK HZY
Conditions at: MMAA (ACAPULCO/G. ALVA, MX) observed 0740 UTC 25 March 2019
Temperature: 25.0°C (77°F)
Dewpoint: 23.0°C (73°F) [RH = 89%]
Pressure (altimeter): 29.92 inches Hg (1013.3 mb)
Winds: from the N (350 degrees) at 3 MPH (3 knots; 1.5 m/s)
Visibility: 6 miles (10 km)
Ceiling: at least 12,000 feet AGL
Clouds: clear skies
Weather: no significant weather observed at this time

METAR text: MMAA 250641Z 33002KT 6SM SKC 24/22 A2994 RMK HZY ISOL CI
Conditions at: MMAA (ACAPULCO/G. ALVA, MX) observed 0641 UTC 25 March 2019
Temperature: 24.0°C (75°F)
Dewpoint: 22.0°C (72°F) [RH = 89%]
Pressure (altimeter): 29.94 inches Hg (1014.0 mb)
Winds: from the NNW (330 degrees) at 2 MPH (2 knots; 1.0 m/s)
Visibility: 6 miles (10 km)
Ceiling: at least 12,000 feet AGL
Clouds: clear skies
Weather: no significant weather observed at this time

METAR text: MMAA 250543Z 00000KT 6SM SKC 24/21 A2995 RMK SLP133 52002 963 HZY ISOL CI
Conditions at: MMAA (ACAPULCO/G. ALVA, MX) observed 0543 UTC 25 March 2019
Temperature: 24.0°C (75°F)
Dewpoint: 21.0°C (70°F) [RH = 83%]
Pressure (altimeter): 29.95 inches Hg (1014.3 mb)
[Sea-level pressure: 1013.3 mb]
Winds: calm
Visibility: 6 miles (10 km)
Ceiling: at least 12,000 feet AGL
Clouds: clear skies
Weather: no significant weather observed at this time

METAR text: MMAA 250441Z 29003KT 6SM SKC 26/22 A2994 RMK HZY ISOL CI
Conditions at: MMAA (ACAPULCO/G. ALVA, MX) observed 0441 UTC 25 March 2019
Temperature: 26.0°C (79°F)
Dewpoint: 22.0°C (72°F) [RH = 79%]
Pressure (altimeter): 29.94 inches Hg (1014.0 mb)
Winds: from the WNW (290 degrees) at 3 MPH (3 knots; 1.5 m/s)
Visibility: 6 miles (10 km)
Ceiling: at least 12,000 feet AGL
Clouds: clear skies
Weather: no significant weather observed at this time

METAR text: MMAA 250341Z 25005KT 6SM SKC 27/23 A2993 RMK HZY
Conditions at: MMAA (ACAPULCO/G. ALVA, MX) observed 0341 UTC 25 March 2019
Temperature: 27.0°C (81°F)
Dewpoint: 23.0°C (73°F) [RH = 79%]
Pressure (altimeter): 29.93 inches Hg (1013.6 mb)
Winds: from the WSW (250 degrees) at 6 MPH (5 knots; 2.6 m/s)
Visibility: 6 miles (10 km)
Ceiling: at least 12,000 feet AGL
Clouds: clear skies
Weather: no significant weather observed at this time

METAR text: MMAA 250249Z 22002KT 6SM SKC 26/23 A2992 RMK SLP131 52030 908 HZY ISOL CI
Conditions at: MMAA (ACAPULCO/G. ALVA, MX) observed 0249 UTC 25 March 2019
Temperature: 26.0°C (79°F)
Dewpoint: 23.0°C (73°F) [RH = 84%]
Pressure (altimeter): 29.92 inches Hg (1013.3 mb)
[Sea-level pressure: 1013.1 mb]
Winds: from the SW (220 degrees) at 2 MPH (2 knots; 1.0 m/s)
Visibility: 6 miles (10 km)
Ceiling: at least 12,000 feet AGL
Clouds: clear skies
Weather: no significant weather observed at this time

METAR text: MMAA 250149Z 25002KT 6SM FEW300 27/23 A2989 RMK 8/002 HZY
Conditions at: MMAA (ACAPULCO/G. ALVA, MX) observed 0149 UTC 25 March 2019
Temperature: 27.0°C (81°F)
Dewpoint: 23.0°C (73°F) [RH = 79%]
Pressure (altimeter): 29.89 inches Hg (1012.3 mb)
Winds: from the WSW (250 degrees) at 2 MPH (2 knots; 1.0 m/s)
Visibility: 6 miles (10 km)
Ceiling: at least 12,000 feet AGL
Clouds: few clouds at 30000 feet AGL
Weather: no significant weather observed at this time

METAR text: MMAA 250048Z 26004KT 6SM FEW300 27/23 A2987 RMK 8/009 HZY AC
Conditions at: MMAA (ACAPULCO/G. ALVA, MX) observed 0048 UTC 25 March 2019
Temperature: 27.0°C (81°F)
Dewpoint: 23.0°C (73°F) [RH = 79%]
Pressure (altimeter): 29.87 inches Hg (1011.6 mb)
Winds: from the W (260 degrees) at 5 MPH (4 knots; 2.1 m/s)
Visibility: 6 miles (10 km)
Ceiling: at least 12,000 feet AGL
Clouds: few clouds at 30000 feet AGL
Weather: no significant weather observed at this time

Forecast for: MMAA (ACAPULCO/G. ALVA, MX)
Text: TAF MMAA 261115Z 2612/2718 03005KT 6SM HZ SKC TX30/2618Z TN23/2612Z
Forecast period: 1200 to 1600 UTC 26 March 2019
Forecast type: FROM: standard forecast or significant change
Winds: from the NNE (30 degrees) at 6 MPH (5 knots; 2.6 m/s)
Visibility: 6 miles (10 km)
Clouds: clear skies
Weather: HZ  (haze)
Text: FM261600 23010KT P6SM SKC
Forecast period: 1600 UTC 26 March 2019 to 0300 UTC 27 March 2019
Forecast type: FROM: standard forecast or significant change
Winds: from the SW (230 degrees) at 12 MPH (10 knots; 5.1 m/s)
Visibility: 6 or more miles 10+ km)
Clouds: clear skies
Weather: no significant weather forecast for this period
Text: FM270300 02005KT 6SM HZ SKC
Forecast period: 0300 to 1600 UTC 27 March 2019
Forecast type: FROM: standard forecast or significant change
Winds: from the NNE (20 degrees) at 6 MPH (5 knots; 2.6 m/s)
Visibility: 6 miles (10 km)
Clouds: clear skies
Weather: HZ  (haze)
Text: FM271600 23010KT P6SM SKC
Forecast period: 1600 to 1800 UTC 27 March 2019
Forecast type: FROM: standard forecast or significant change
Winds: from the SW (230 degrees) at 12 MPH (10 knots; 5.1 m/s)
Visibility: 6 or more miles 10+ km)
Clouds: clear skies
Weather: no significant weather forecast for this period